Map

Track Data

SID SEASON NUMBER BASIN SUBBASIN NAME ISO_TIME NATURE LAT LON WMO_WIND WMO_PRES WMO_AGENCY TRACK_TYPE DIST2LAND LANDFALL IFLAG USA_AGENCY USA_ATCF_ID USA_LAT USA_LON USA_RECORD USA_STATUS USA_WIND USA_PRES USA_SSHS USA_R34_NE USA_R34_SE USA_R34_SW USA_R34_NW USA_R50_NE USA_R50_SE USA_R50_SW USA_R50_NW USA_R64_NE USA_R64_SE USA_R64_SW USA_R64_NW USA_POCI USA_ROCI USA_RMW USA_EYE TOKYO_LAT TOKYO_LON TOKYO_GRADE TOKYO_WIND TOKYO_PRES TOKYO_R50_DIR TOKYO_R50_LONG TOKYO_R50_SHORT TOKYO_R30_DIR TOKYO_R30_LONG TOKYO_R30_SHORT TOKYO_LAND CMA_LAT CMA_LON CMA_CAT CMA_WIND CMA_PRES HKO_LAT HKO_LON HKO_CAT HKO_WIND HKO_PRES NEWDELHI_LAT NEWDELHI_LON NEWDELHI_GRADE NEWDELHI_WIND NEWDELHI_PRES NEWDELHI_CI NEWDELHI_DP NEWDELHI_POCI REUNION_LAT REUNION_LON REUNION_TYPE REUNION_WIND REUNION_PRES REUNION_TNUM REUNION_CI REUNION_RMW REUNION_R34_NE REUNION_R34_SE REUNION_R34_SW REUNION_R34_NW REUNION_R50_NE REUNION_R50_SE REUNION_R50_SW REUNION_R50_NW REUNION_R64_NE REUNION_R64_SE REUNION_R64_SW REUNION_R64_NW BOM_LAT BOM_LON BOM_TYPE BOM_WIND BOM_PRES BOM_TNUM BOM_CI BOM_RMW BOM_R34_NE BOM_R34_SE BOM_R34_SW BOM_R34_NW BOM_R50_NE BOM_R50_SE BOM_R50_SW BOM_R50_NW BOM_R64_NE BOM_R64_SE BOM_R64_SW BOM_R64_NW BOM_ROCI BOM_POCI BOM_EYE BOM_POS_METHOD BOM_PRES_METHOD NADI_LAT NADI_LON NADI_CAT NADI_WIND NADI_PRES WELLINGTON_LAT WELLINGTON_LON WELLINGTON_WIND WELLINGTON_PRES DS824_LAT DS824_LON DS824_STAGE DS824_WIND DS824_PRES TD9636_LAT TD9636_LON TD9636_STAGE TD9636_WIND TD9636_PRES TD9635_LAT TD9635_LON TD9635_WIND TD9635_PRES TD9635_ROCI NEUMANN_LAT NEUMANN_LON NEUMANN_CLASS NEUMANN_WIND NEUMANN_PRES MLC_LAT MLC_LON MLC_CLASS MLC_WIND MLC_PRES USA_GUST BOM_GUST BOM_GUST_PER REUNION_GUST REUNION_GUST_PER USA_SEAHGT USA_SEARAD_NE USA_SEARAD_SE USA_SEARAD_SW USA_SEARAD_NW STORM_SPEED STORM_DIR
1971301N11259 1971 143 EP MM RAMONA 1971-10-28 00:00:00 TS 10.9000 -100.900 25 hurdat_epa main 653 653 O________OO___ hurdat_epa EP171971 10.9000 -100.900 TD 25 -1 10.9000 -100.900 TC 25 10.9000 -100.900 1 10 275
1971301N11259 1971 143 EP MM RAMONA 1971-10-28 03:00:00 TS 10.9447 -101.399 main 674 667 P________PP___ EP171971 10.9402 -101.403 TD 35 0 10.9402 -101.403 TC 35 10.9629 -101.383 1 10 276
1971301N11259 1971 143 EP MM RAMONA 1971-10-28 06:00:00 TS 11.0061 -101.895 45 hurdat_epa main 680 680 O________OP___ hurdat_epa EP171971 11.0000 -101.900 TS 45 0 11.0000 -101.900 TC 45 11.0304 -101.873 1 10 279
1971301N11259 1971 143 EP MM RAMONA 1971-10-28 09:00:00 TS 11.0954 -102.389 main 691 691 P________PP___ EP171971 11.0924 -102.393 TS 45 0 11.0924 -102.393 TC 45 11.1077 -102.376 1 10 281
1971301N11259 1971 143 EP MM RAMONA 1971-10-28 12:00:00 TS 11.2000 -102.900 45 hurdat_epa main 706 706 O________OO___ hurdat_epa EP171971 11.2000 -102.900 TS 45 0 11.2000 -102.900 TC 45 11.2000 -102.900 2 11 281
1971301N11259 1971 143 EP MM RAMONA 1971-10-28 15:00:00 TS 11.2961 -103.444 main 715 715 P________PP___ EP171971 11.2924 -103.443 TS 47 0 11.2924 -103.443 TC 47 11.3106 -103.448 2 11 281
1971301N11259 1971 143 EP MM RAMONA 1971-10-28 18:00:00 TS 11.4070 -104.001 50 hurdat_epa main 730 730 O________OP___ hurdat_epa EP171971 11.4000 -104.000 TS 50 0 11.4000 -104.000 TC 50 11.4350 -104.007 2 11 283
1971301N11259 1971 143 EP MM RAMONA 1971-10-28 21:00:00 TS 11.5533 -104.559 main 741 741 P________PP___ EP171971 11.5499 -104.557 TS 50 0 11.5499 -104.557 TC 50 11.5669 -104.563 2 11 285
1971301N11259 1971 143 EP MM RAMONA 1971-10-29 00:00:00 TS 11.7000 -105.100 50 hurdat_epa main 754 754 O________OO___ hurdat_epa EP171971 11.7000 -105.100 TS 50 0 11.7000 -105.100 TC 50 11.7000 -105.100 2 11 283
1971301N11259 1971 143 EP MM RAMONA 1971-10-29 03:00:00 TS 11.7975 -105.609 main 761 761 P________PP___ EP171971 11.7999 -105.615 TS 50 0 11.7999 -105.615 TC 50 11.7879 -105.585 2 10 281
1971301N11259 1971 143 EP MM RAMONA 1971-10-29 06:00:00 TS 11.8963 -106.090 50 hurdat_epa main 768 766 O________OP___ hurdat_epa EP171971 11.9000 -106.100 TS 50 0 11.9000 -106.100 TC 50 11.8817 -106.051 2 9 284
1971301N11259 1971 143 EP MM RAMONA 1971-10-29 09:00:00 TS 12.0178 -106.537 main 775 769 P________PP___ EP171971 12.0198 -106.543 TS 37 0 12.0198 -106.543 TC 37 12.0097 -106.517 2 9 289
1971301N11259 1971 143 EP MM RAMONA 1971-10-29 12:00:00 TS 12.2000 -107.000 25 hurdat_epa main 779 774 O________OO___ hurdat_epa EP171971 12.2000 -107.000 TD 25 -1 12.2000 -107.000 TC 25 12.2000 -107.000 6 11 295
1971301N11259 1971 143 EP MM RAMONA 1971-10-29 15:00:00 TS 12.4655 -107.542 main 778 778 P________PP___ EP171971 12.4625 -107.535 TD 25 -1 12.4625 -107.535 TC 25 12.4776 -107.568 6 12 299
1971301N11259 1971 143 EP MM RAMONA 1971-10-29 18:00:00 TS 12.8036 -108.110 25 hurdat_epa main 788 784 O________OP___ hurdat_epa EP171971 12.8000 -108.100 TD 25 -1 12.8000 -108.100 TC 25 12.8181 -108.152 6 13 303
1971301N11259 1971 143 EP MM RAMONA 1971-10-29 21:00:00 TS 13.1879 -108.674 main 790 776 P________PP___ EP171971 13.1850 -108.665 TD 25 -1 13.1850 -108.665 TC 25 13.1995 -108.709 6 13 307
1971301N11259 1971 143 EP MM RAMONA 1971-10-30 00:00:00 TS 13.6000 -109.200 25 hurdat_epa main 782 774 O________OO___ hurdat_epa EP171971 13.6000 -109.200 TD 25 -1 13.6000 -109.200 TC 25 13.6000 -109.200 6 13 309
1971301N11259 1971 143 EP MM RAMONA 1971-10-30 03:00:00 TS 14.0036 -109.699 main 781 778 P________PP___ EP171971 14.0000 -109.710 TD 25 -1 14.0000 -109.710 TC 25 14.0177 -109.657 6 12 313
1971301N11259 1971 143 EP MM RAMONA 1971-10-30 06:00:00 TS 14.4089 -110.086 25 hurdat_epa main 778 763 O________OP___ hurdat_epa EP171971 14.4000 -110.100 TD 25 -1 14.4000 -110.100 TC 25 14.4445 -110.032 6 10 323
1971301N11259 1971 143 EP MM RAMONA 1971-10-30 09:00:00 TS 14.8277 -110.336 main 763 739 P________PP___ EP171971 14.8223 -110.348 TD 25 -1 14.8223 -110.348 TC 25 14.8490 -110.291 6 9 339
1971301N11259 1971 143 EP MM RAMONA 1971-10-30 12:00:00 TS 15.2000 -110.400 25 hurdat_epa main 739 708 O________OO___ hurdat_epa EP171971 15.2000 -110.400 TD 25 -1 15.2000 -110.400 TC 25 15.2000 -110.400 6 7 5
1971301N11259 1971 143 EP MM RAMONA 1971-10-30 15:00:00 TS 15.4850 -110.276 main 708 669 P________PP___ EP171971 15.4875 -110.260 TD 25 -1 15.4875 -110.260 TC 25 15.4748 -110.338 6 6 36
1971301N11259 1971 143 EP MM RAMONA 1971-10-30 18:00:00 TS 15.6977 -110.021 25 hurdat_epa main 669 638 O________OP___ hurdat_epa EP171971 15.7000 -110.000 TD 25 -1 15.7000 -110.000 TC 25 15.6857 -110.136 6 6 52
1971301N11259 1971 143 EP MM RAMONA 1971-10-30 21:00:00 TS 15.8705 -109.753 main 638 607 P________PP___ EP171971 15.8725 -109.742 TD 25 -1 15.8725 -109.742 TC 25 15.8538 -109.841 6 6 59
1971301N11259 1971 143 EP MM RAMONA 1971-10-31 00:00:00 TS 16.0000 -109.500 25 hurdat_epa main 607 584 O________OO___ hurdat_epa EP171971 16.0000 -109.500 TD 25 -1 16.0000 -109.500 TC 25 16.0000 -109.500 6 5 59
1971301N11259 1971 143 EP MM RAMONA 1971-10-31 03:00:00 TS 16.1150 -109.335 main 584 568 P________P____ EP171971 16.1150 -109.335 TD 25 -1 16.1150 -109.335 TC 25 6 4 55
1971301N11259 1971 143 EP MM RAMONA 1971-10-31 06:00:00 TS 16.2000 -109.200 25 hurdat_epa main 568 553 O________O____ hurdat_epa EP171971 16.2000 -109.200 TD 25 -1 16.2000 -109.200 TC 25 6 3 62
1971301N11259 1971 143 EP MM RAMONA 1971-10-31 09:00:00 TS 16.2575 -109.055 main 553 538 P________P____ EP171971 16.2575 -109.055 TD 25 -1 16.2575 -109.055 TC 25 6 3 71
1971301N11259 1971 143 EP MM RAMONA 1971-10-31 12:00:00 TS 16.3000 -108.900 25 hurdat_epa main 538 O________O____ hurdat_epa EP171971 16.3000 -108.900 TD 25 -1 16.3000 -108.900 TC 25 3 74

About IBTrACS Database

This database is a web-friendly format of International Best Track Archive for Climate Stewardship (IBTrACS), a global best track data archive curated by NOAA dating back to 1842.

Updated: 2021-12-01